Time;durP1;ratioP1;P1;durP2;ratioP2;P2;SDS_P1;SDS_P2;PMS_P1;PMS_P2;Temp;Humidity;BMP_temperature;BMP_pressure;BME280_temperature;BME280_humidity;BME280_pressure;Samples;Min_cycle;Max_cycle;Signal;HPM_P1;HPM_P2
2021/03/12 00:00:24;;;;;;;4.78;1.95;;;20.50;48.80;;;;;;5089365;28;20512;-43
2021/03/12 00:02:50;;;;;;;6.80;2.60;;;20.50;48.80;;;;;;5072218;28;20043;-42
2021/03/12 00:05:17;;;;;;;7.20;3.03;;;20.50;48.70;;;;;;5082923;28;20037;-46
2021/03/12 00:07:42;;;;;;;5.18;2.15;;;20.50;48.70;;;;;;5092109;28;20032;-42
2021/03/12 00:10:17;;;;;;;3.53;1.80;;;20.50;48.70;;;;;;5080415;28;20032;-41
2021/03/12 00:12:44;;;;;;;3.83;2.05;;;20.50;48.70;;;;;;5092560;28;20027;-43
2021/03/12 00:15:15;;;;;;;6.32;2.50;;;20.50;48.60;;;;;;5077208;28;20028;-47
2021/03/12 00:17:42;;;;;;;6.25;2.08;;;20.40;48.60;;;;;;5074688;28;20358;-45
2021/03/12 00:20:17;;;;;;;4.28;1.70;;;20.50;48.60;;;;;;5074039;28;20494;-43
2021/03/12 00:22:43;;;;;;;4.40;1.90;;;20.50;48.50;;;;;;5074976;28;20039;-43
2021/03/12 00:25:12;;;;;;;3.75;1.63;;;20.50;48.50;;;;;;5074085;28;20089;-43
2021/03/12 00:27:39;;;;;;;3.67;2.08;;;20.50;48.40;;;;;;5075838;28;20060;-43
2021/03/12 00:30:06;;;;;;;3.80;1.85;;;20.50;48.40;;;;;;5085558;28;20099;-47
2021/03/12 00:32:32;;;;;;;5.22;2.25;;;20.50;48.40;;;;;;5074144;28;20024;-47
2021/03/12 00:34:58;;;;;;;3.15;1.58;;;20.50;48.30;;;;;;5083246;28;20035;-46
2021/03/12 00:37:24;;;;;;;4.28;2.00;;;20.50;48.30;;;;;;5073515;28;20029;-43
2021/03/12 00:39:49;;;;;;;2.72;1.60;;;20.50;48.30;;;;;;5092881;28;20040;-41
2021/03/12 00:42:15;;;;;;;2.80;1.58;;;20.50;48.20;;;;;;5091840;28;20031;-40
2021/03/12 00:44:41;;;;;;;3.42;1.50;;;20.50;48.20;;;;;;5081983;28;20062;-40
2021/03/12 00:47:06;;;;;;;3.58;1.40;;;20.50;48.20;;;;;;5086491;28;20147;-50
2021/03/12 00:49:32;;;;;;;3.50;1.67;;;20.50;48.10;;;;;;5074193;28;20047;-43
2021/03/12 00:51:57;;;;;;;5.35;1.67;;;20.50;48.10;;;;;;5074017;28;20032;-42
2021/03/12 00:54:23;;;;;;;3.60;1.42;;;20.50;48.10;;;;;;5085167;28;20024;-41
2021/03/12 00:56:49;;;;;;;3.30;1.52;;;20.50;48.00;;;;;;5082715;28;20033;-41
2021/03/12 00:59:15;;;;;;;4.07;1.80;;;20.50;48.00;;;;;;5088152;28;20409;-44
2021/03/12 01:01:41;;;;;;;3.85;1.73;;;20.50;48.00;;;;;;5087203;28;20037;-41
2021/03/12 01:04:06;;;;;;;3.63;1.75;;;20.50;47.90;;;;;;5078948;28;20029;-49
2021/03/12 01:06:32;;;;;;;6.53;1.85;;;20.50;47.90;;;;;;5074712;28;20028;-44
2021/03/12 01:08:58;;;;;;;3.67;1.58;;;20.50;47.80;;;;;;5080974;28;20032;-44
2021/03/12 01:11:23;;;;;;;2.67;1.40;;;20.50;47.70;;;;;;5088427;28;20385;-43
2021/03/12 01:13:49;;;;;;;4.10;1.80;;;20.50;47.80;;;;;;5081333;28;20386;-42
2021/03/12 01:16:14;;;;;;;3.05;1.38;;;20.50;47.70;;;;;;5073167;28;20035;-46
2021/03/12 01:18:40;;;;;;;1.88;1.25;;;20.50;47.70;;;;;;5074011;28;20477;-41
2021/03/12 01:21:06;;;;;;;3.58;1.65;;;20.50;47.60;;;;;;5073720;28;20535;-50
2021/03/12 01:23:32;;;;;;;3.03;1.58;;;20.50;47.60;;;;;;5081129;28;20485;-43
2021/03/12 01:25:57;;;;;;;2.55;1.38;;;20.50;47.60;;;;;;5092638;28;20080;-42
2021/03/12 01:28:23;;;;;;;3.55;1.30;;;20.50;47.50;;;;;;5090996;28;20058;-41
2021/03/12 01:30:49;;;;;;;1.77;1.08;;;20.50;47.50;;;;;;5091280;28;20039;-43
2021/03/12 01:33:16;;;;;;;11.38;3.42;;;20.50;47.40;;;;;;5086793;28;20400;-42
2021/03/12 01:35:42;;;;;;;4.53;1.58;;;20.50;47.40;;;;;;5082452;28;20023;-45
2021/03/12 01:38:08;;;;;;;3.08;1.30;;;20.50;47.30;;;;;;5073468;28;20036;-52
2021/03/12 01:40:45;;;;;;;4.28;2.10;;;20.50;47.30;;;;;;5080989;28;20067;-44
2021/03/12 01:43:11;;;;;;;2.67;1.55;;;20.50;47.20;;;;;;5073842;28;20729;-41
2021/03/12 01:45:43;;;;;;;1.77;1.08;;;20.50;47.20;;;;;;5082613;28;20540;-45
2021/03/12 01:48:16;;;;;;;2.35;1.40;;;20.50;47.20;;;;;;5083401;28;20055;-51
2021/03/12 01:50:45;;;;;;;1.80;1.20;;;20.50;47.20;;;;;;5092803;28;20035;-41
2021/03/12 01:53:13;;;;;;;2.20;1.00;;;20.50;47.10;;;;;;5090333;28;20036;-48
2021/03/12 01:55:38;;;;;;;4.32;1.50;;;20.50;47.10;;;;;;5074429;28;20110;-44
2021/03/12 01:58:05;;;;;;;2.17;1.08;;;20.50;47.10;;;;;;5073111;28;20094;-43
2021/03/12 02:00:31;;;;;;;2.28;1.20;;;20.50;47.60;;;;;;5072171;28;20031;-45
2021/03/12 02:02:58;;;;;;;3.63;1.10;;;20.50;47.00;;;;;;5086783;28;20099;-44
2021/03/12 02:05:24;;;;;;;3.78;1.00;;;20.50;46.90;;;;;;5083538;28;20063;-43
2021/03/12 02:07:50;;;;;;;2.38;1.23;;;20.50;46.90;;;;;;5092309;28;20409;-41
2021/03/12 02:10:21;;;;;;;2.55;0.98;;;20.50;46.80;;;;;;5091735;28;20111;-50
2021/03/12 02:13:15;;;;;;;2.33;0.80;;;20.50;46.80;;;;;;5073790;28;20036;-42
2021/03/12 02:15:49;;;;;;;3.85;1.30;;;20.50;46.80;;;;;;5084998;28;20047;-46
2021/03/12 02:18:25;;;;;;;2.67;1.33;;;20.50;46.80;;;;;;5080987;28;20119;-42
2021/03/12 02:20:57;;;;;;;1.60;1.05;;;20.50;46.80;;;;;;5092288;28;20028;-46
2021/03/12 02:23:34;;;;;;;3.63;1.25;;;20.50;46.80;;;;;;5090088;28;20058;-44
2021/03/12 02:26:10;;;;;;;2.92;1.00;;;20.50;46.70;;;;;;5073871;28;20369;-42
2021/03/12 02:28:36;;;;;;;2.88;1.15;;;20.50;46.60;;;;;;5072406;28;20036;-47
2021/03/12 02:31:04;;;;;;;1.83;0.82;;;20.50;47.30;;;;;;5077315;28;20028;-44
2021/03/12 02:33:31;;;;;;;2.70;1.00;;;20.50;46.60;;;;;;5071466;28;20024;-45
2021/03/12 02:35:58;;;;;;;1.98;1.00;;;20.50;46.60;;;;;;5084816;28;20102;-42
2021/03/12 02:38:26;;;;;;;5.43;0.90;;;20.50;46.60;;;;;;5070135;28;20500;-42
2021/03/12 02:40:54;;;;;;;4.25;1.42;;;20.50;46.50;;;;;;5074389;28;20020;-46
2021/03/12 02:43:20;;;;;;;2.67;1.10;;;20.50;46.50;;;;;;5082830;28;20485;-47
2021/03/12 02:45:47;;;;;;;2.47;1.10;;;20.50;46.60;;;;;;5087327;28;20024;-42
2021/03/12 02:48:13;;;;;;;2.05;0.98;;;20.50;46.50;;;;;;5080066;28;20485;-47
2021/03/12 02:50:41;;;;;;;2.55;1.05;;;20.60;46.50;;;;;;5087075;28;20107;-43
2021/03/12 02:53:06;;;;;;;2.53;1.00;;;20.50;46.40;;;;;;5072289;28;20059;-44
2021/03/12 02:55:34;;;;;;;2.53;0.80;;;20.50;46.40;;;;;;5077774;28;20457;-45
2021/03/12 02:58:00;;;;;;;3.05;1.30;;;20.50;46.40;;;;;;5076756;28;20084;-42
2021/03/12 03:00:26;;;;;;;1.40;0.90;;;20.50;46.30;;;;;;5090220;28;20063;-42
2021/03/12 03:02:52;;;;;;;2.97;0.95;;;20.60;46.40;;;;;;5091669;28;20040;-42
2021/03/12 03:05:19;;;;;;;1.63;0.85;;;20.50;46.30;;;;;;5085012;28;20081;-44
2021/03/12 03:07:49;;;;;;;1.83;1.00;;;20.60;46.30;;;;;;5077473;28;20027;-42
2021/03/12 03:10:16;;;;;;;1.80;0.90;;;20.50;46.20;;;;;;5082523;28;20040;-42
2021/03/12 03:12:45;;;;;;;4.45;0.80;;;20.60;46.20;;;;;;5071734;28;20029;-46
2021/03/12 03:15:14;;;;;;;1.40;0.80;;;20.50;46.10;;;;;;5080213;28;20028;-50
2021/03/12 03:17:40;;;;;;;1.50;1.00;;;20.50;46.10;;;;;;5083758;28;20143;-41
2021/03/12 03:20:09;;;;;;;1.77;0.90;;;20.60;46.10;;;;;;5089619;28;20036;-45
2021/03/12 03:22:37;;;;;;;1.92;0.98;;;20.60;46.20;;;;;;5080168;28;20043;-42
2021/03/12 03:25:05;;;;;;;2.30;0.80;;;20.50;46.00;;;;;;5079215;28;20032;-43
2021/03/12 03:27:31;;;;;;;2.45;0.90;;;20.50;46.00;;;;;;5084058;28;20100;-45
2021/03/12 03:29:57;;;;;;;2.35;0.80;;;20.50;46.00;;;;;;5073120;28;20388;-46
2021/03/12 03:32:23;;;;;;;3.30;1.23;;;20.60;46.00;;;;;;5087673;28;20028;-43
2021/03/12 03:34:48;;;;;;;2.42;0.80;;;20.50;46.00;;;;;;5084730;28;20055;-42
2021/03/12 03:37:14;;;;;;;1.02;0.75;;;20.50;46.60;;;;;;5088901;28;20035;-49
2021/03/12 03:39:40;;;;;;;0.98;0.70;;;20.60;46.00;;;;;;5088231;28;20040;-41
2021/03/12 03:42:09;;;;;;;4.65;1.15;;;20.50;45.90;;;;;;5080653;28;20384;-42
2021/03/12 03:44:35;;;;;;;2.20;0.70;;;20.60;45.90;;;;;;5078713;28;20433;-45
2021/03/12 03:47:04;;;;;;;1.45;0.88;;;20.60;45.80;;;;;;5083649;28;20154;-40
2021/03/12 03:49:34;;;;;;;1.83;0.70;;;20.50;45.80;;;;;;5091070;28;20050;-45
2021/03/12 03:52:03;;;;;;;2.55;1.15;;;20.50;45.70;;;;;;5094755;28;20040;-41
2021/03/12 03:54:30;;;;;;;2.47;0.82;;;20.50;45.70;;;;;;5088691;28;20035;-41
2021/03/12 03:56:57;;;;;;;1.23;0.80;;;20.60;45.70;;;;;;5075243;28;20473;-42
2021/03/12 03:59:23;;;;;;;1.65;0.82;;;20.50;45.60;;;;;;5081195;28;20481;-42
2021/03/12 04:01:49;;;;;;;3.10;0.85;;;20.50;45.50;;;;;;5087697;28;20035;-44
2021/03/12 04:04:16;;;;;;;1.38;0.68;;;20.50;45.50;;;;;;5080668;28;20024;-48
2021/03/12 04:06:43;;;;;;;1.27;0.60;;;20.50;45.50;;;;;;5086814;28;20382;-42
2021/03/12 04:09:13;;;;;;;1.63;0.80;;;20.50;45.40;;;;;;5086635;28;20119;-43
2021/03/12 04:11:39;;;;;;;1.95;1.00;;;20.50;45.40;;;;;;5083330;28;20054;-44
2021/03/12 04:14:05;;;;;;;1.17;0.70;;;20.50;45.30;;;;;;5085311;28;20032;-40
2021/03/12 04:16:31;;;;;;;2.05;0.70;;;20.50;45.30;;;;;;5084927;28;20823;-44
2021/03/12 04:18:59;;;;;;;1.13;0.77;;;20.50;45.30;;;;;;5083179;28;20481;-45
2021/03/12 04:21:26;;;;;;;2.03;0.60;;;20.50;45.30;;;;;;5083093;28;20477;-41
2021/03/12 04:23:52;;;;;;;2.80;0.75;;;20.50;45.20;;;;;;5085179;28;20036;-43
2021/03/12 04:26:18;;;;;;;1.67;0.77;;;20.50;45.20;;;;;;5083904;28;20404;-42
2021/03/12 04:28:44;;;;;;;1.67;0.50;;;20.50;45.20;;;;;;5084134;28;20066;-45
2021/03/12 04:31:10;;;;;;;1.20;0.70;;;20.50;45.10;;;;;;5082663;28;20028;-44
2021/03/12 04:33:36;;;;;;;2.10;0.85;;;20.50;45.10;;;;;;5086734;28;20024;-46
2021/03/12 04:36:04;;;;;;;2.60;0.70;;;20.50;45.00;;;;;;5083572;28;20017;-41
2021/03/12 04:38:30;;;;;;;2.17;0.80;;;20.60;45.10;;;;;;5083751;28;20040;-42
2021/03/12 04:40:57;;;;;;;1.70;0.90;;;20.50;45.00;;;;;;5080169;28;20119;-51
2021/03/12 04:43:23;;;;;;;2.80;0.95;;;20.60;45.00;;;;;;5082231;28;20021;-45
2021/03/12 04:45:49;;;;;;;1.38;0.63;;;20.50;45.00;;;;;;5085514;28;20040;-43
2021/03/12 04:48:16;;;;;;;1.10;0.60;;;20.50;44.90;;;;;;5084864;28;20487;-47
2021/03/12 04:50:43;;;;;;;1.75;0.77;;;20.50;44.80;;;;;;5081810;28;20053;-45
2021/03/12 04:53:09;;;;;;;3.42;0.70;;;20.50;44.80;;;;;;5081943;28;20035;-44
2021/03/12 04:55:35;;;;;;;1.20;0.52;;;20.50;44.70;;;;;;5081036;28;20020;-46
2021/03/12 04:58:02;;;;;;;1.95;0.80;;;20.50;44.70;;;;;;5083140;28;20044;-47
2021/03/12 05:00:28;;;;;;;2.15;0.82;;;20.50;44.70;;;;;;5085990;28;20440;-47
2021/03/12 05:02:55;;;;;;;3.90;0.88;;;20.50;44.70;;;;;;5083953;28;20047;-43
2021/03/12 05:05:23;;;;;;;1.17;0.63;;;20.50;44.60;;;;;;5082004;28;20089;-45
2021/03/12 05:07:49;;;;;;;1.42;0.60;;;20.60;44.70;;;;;;5084973;28;20029;-41
2021/03/12 05:10:15;;;;;;;2.05;0.80;;;20.50;44.50;;;;;;5083225;28;20099;-50
2021/03/12 05:12:41;;;;;;;1.88;0.70;;;20.50;44.50;;;;;;5086129;28;20543;-44
2021/03/12 05:15:07;;;;;;;1.42;0.57;;;20.60;44.60;;;;;;5084123;28;20028;-43
2021/03/12 05:17:33;;;;;;;1.30;0.70;;;20.50;44.50;;;;;;5084581;28;20024;-42
2021/03/12 05:19:59;;;;;;;3.22;0.77;;;20.60;44.50;;;;;;5084447;28;20036;-43
2021/03/12 05:22:24;;;;;;;2.75;0.75;;;20.60;44.50;;;;;;5085430;28;20450;-41
2021/03/12 05:24:50;;;;;;;1.33;0.60;;;20.50;44.40;;;;;;5087469;28;20035;-43
2021/03/12 05:27:16;;;;;;;2.65;1.27;;;20.50;44.40;;;;;;5082215;28;20056;-45
2021/03/12 05:29:41;;;;;;;2.03;0.63;;;20.60;44.40;;;;;;5084665;28;20024;-41
2021/03/12 05:32:07;;;;;;;1.65;0.77;;;20.50;44.30;;;;;;5083815;28;20547;-42
2021/03/12 05:34:33;;;;;;;1.75;0.60;;;20.50;44.30;;;;;;5084817;28;20564;-42
2021/03/12 05:36:59;;;;;;;2.78;0.60;;;20.50;44.30;;;;;;5084403;28;20032;-42
2021/03/12 05:39:25;;;;;;;2.92;0.80;;;20.60;44.30;;;;;;5084712;28;20384;-41
2021/03/12 05:41:51;;;;;;;4.22;0.93;;;20.60;44.20;;;;;;5083821;28;20078;-43
2021/03/12 05:44:18;;;;;;;2.58;0.80;;;20.50;44.20;;;;;;5082817;28;20055;-42
2021/03/12 05:46:44;;;;;;;1.88;0.70;;;20.60;44.30;;;;;;5081349;28;20089;-42
2021/03/12 05:49:12;;;;;;;2.55;0.68;;;20.60;44.20;;;;;;5082850;28;20027;-41
2021/03/12 05:51:38;;;;;;;2.28;0.65;;;20.60;44.20;;;;;;5083394;28;20051;-46
2021/03/12 05:54:05;;;;;;;3.90;0.77;;;20.60;44.20;;;;;;5081955;28;20473;-42
2021/03/12 05:56:35;;;;;;;3.10;0.70;;;20.50;44.20;;;;;;5082634;28;20035;-41
2021/03/12 05:59:02;;;;;;;3.10;1.10;;;20.50;44.10;;;;;;5082498;28;20048;-43
2021/03/12 06:01:30;;;;;;;2.00;0.57;;;20.50;44.20;;;;;;5083847;28;20028;-44
2021/03/12 06:03:55;;;;;;;1.67;0.68;;;20.60;44.20;;;;;;5092317;28;20028;-45
2021/03/12 06:06:21;;;;;;;2.28;0.75;;;20.60;44.10;;;;;;5085294;28;20043;-41
2021/03/12 06:08:47;;;;;;;1.90;0.70;;;20.50;44.10;;;;;;5085427;28;20035;-42
2021/03/12 06:11:12;;;;;;;1.83;0.75;;;20.50;44.10;;;;;;5072845;28;20499;-48
2021/03/12 06:13:55;;;;;;;4.20;0.77;;;20.50;44.10;;;;;;5072765;28;20462;-44
2021/03/12 06:16:28;;;;;;;2.17;0.73;;;20.60;44.10;;;;;;5076261;28;20046;-43
2021/03/12 06:19:17;;;;;;;1.13;0.60;;;20.60;44.00;;;;;;5082306;28;20044;-44
2021/03/12 06:21:46;;;;;;;1.33;0.55;;;20.60;44.00;;;;;;5078438;28;20032;-43
2021/03/12 06:24:27;;;;;;;1.73;0.70;;;20.60;44.00;;;;;;5073435;28;20028;-47
2021/03/12 06:26:53;;;;;;;2.15;1.02;;;20.60;44.00;;;;;;5081663;28;20036;-42
2021/03/12 06:29:30;;;;;;;1.38;0.52;;;20.60;44.00;;;;;;5071565;28;20710;-47
2021/03/12 06:31:55;;;;;;;1.10;0.70;;;20.60;44.00;;;;;;5072512;28;20035;-42
2021/03/12 06:34:21;;;;;;;13.73;1.65;;;20.60;44.00;;;;;;5075589;28;20028;-41
2021/03/12 06:36:46;;;;;;;1.65;1.00;;;20.60;43.90;;;;;;5082908;28;20032;-44
2021/03/12 06:39:12;;;;;;;1.75;0.70;;;20.60;43.90;;;;;;5071976;28;20116;-44
2021/03/12 06:41:39;;;;;;;1.83;0.63;;;20.60;44.00;;;;;;5071430;28;20053;-45
2021/03/12 06:44:27;;;;;;;1.77;0.75;;;20.60;43.90;;;;;;5088979;28;20034;-42
2021/03/12 06:46:52;;;;;;;2.60;0.60;;;20.60;43.90;;;;;;5072914;28;20025;-44
2021/03/12 06:49:18;;;;;;;1.63;0.50;;;20.60;43.90;;;;;;5082637;28;20036;-45
2021/03/12 06:52:01;;;;;;;10.18;0.93;;;20.60;43.90;;;;;;5073456;28;20027;-42
2021/03/12 06:54:29;;;;;;;8.05;0.80;;;20.70;44.10;;;;;;5071371;28;20028;-43
2021/03/12 06:56:56;;;;;;;5.68;0.80;;;20.60;44.10;;;;;;5071985;28;20028;-41
2021/03/12 06:59:30;;;;;;;7.07;1.25;;;20.70;44.20;;;;;;5070506;28;20048;-41
2021/03/12 07:02:03;;;;;;;10.38;1.42;;;20.70;44.40;;;;;;5072924;28;20028;-43
2021/03/12 07:04:30;;;;;;;4.18;0.90;;;20.70;44.40;;;;;;5070900;28;20024;-44
2021/03/12 07:06:57;;;;;;;6.25;1.10;;;20.70;44.50;;;;;;5082845;28;20047;-40
2021/03/12 07:09:26;;;;;;;17.75;1.85;;;20.70;44.50;;;;;;5089229;28;20529;-48
2021/03/12 07:11:56;;;;;;;7.82;1.00;;;20.70;44.70;;;;;;5069591;28;20021;-39
2021/03/12 07:14:22;;;;;;;3.60;1.35;;;20.70;44.60;;;;;;5074978;28;20048;-40
2021/03/12 07:16:51;;;;;;;8.82;1.10;;;20.80;44.70;;;;;;5077641;28;20070;-42
2021/03/12 07:19:19;;;;;;;5.90;1.00;;;20.80;44.60;;;;;;5079871;28;20059;-48
2021/03/12 07:21:51;;;;;;;7.78;1.58;;;20.80;44.50;;;;;;5087853;28;20043;-42
2021/03/12 07:24:22;;;;;;;6.45;0.90;;;20.90;44.50;;;;;;5082800;28;20469;-43
2021/03/12 07:26:50;;;;;;;4.97;0.80;;;20.90;44.50;;;;;;5091270;28;20258;-42
2021/03/12 07:29:22;;;;;;;7.68;1.20;;;20.90;44.40;;;;;;5090151;28;20032;-46
2021/03/12 07:31:51;;;;;;;6.45;0.93;;;20.90;44.30;;;;;;5074779;28;20028;-46
2021/03/12 07:34:31;;;;;;;7.28;1.42;;;20.90;44.40;;;;;;5073133;28;20028;-46
2021/03/12 07:37:00;;;;;;;8.93;1.35;;;21.00;44.40;;;;;;5091984;28;20032;-39
2021/03/12 07:39:34;;;;;;;3.90;0.88;;;21.00;44.40;;;;;;5086691;28;20465;-38
2021/03/12 07:42:01;;;;;;;3.85;1.55;;;21.10;44.30;;;;;;5090772;28;20027;-48
2021/03/12 07:44:27;;;;;;;3.25;1.20;;;21.10;44.80;;;;;;5086918;28;20481;-47
2021/03/12 07:46:55;;;;;;;4.32;0.73;;;21.10;44.10;;;;;;5072547;28;20531;-44
2021/03/12 07:49:32;;;;;;;7.93;1.00;;;21.10;44.20;;;;;;5073797;28;20094;-43
2021/03/12 07:51:59;;;;;;;6.95;0.98;;;21.10;44.10;;;;;;5083211;28;20488;-47
2021/03/12 07:54:41;;;;;;;5.63;0.93;;;21.10;44.10;;;;;;5085928;28;20020;-43
2021/03/12 07:57:09;;;;;;;5.35;0.73;;;21.10;44.00;;;;;;5088185;28;20036;-43
2021/03/12 07:59:47;;;;;;;2.10;0.77;;;21.20;44.10;;;;;;5074947;28;20131;-45
2021/03/12 08:02:15;;;;;;;6.80;0.85;;;21.10;44.00;;;;;;5089370;28;20042;-42
2021/03/12 08:04:42;;;;;;;5.82;0.70;;;21.20;44.00;;;;;;5087381;28;20032;-44
2021/03/12 08:07:18;;;;;;;6.60;0.70;;;21.20;43.90;;;;;;5089328;28;20071;-46
2021/03/12 08:09:45;;;;;;;4.40;0.80;;;21.20;44.00;;;;;;5088364;28;20093;-48
2021/03/12 08:12:30;;;;;;;3.25;0.73;;;21.20;44.00;;;;;;5088668;28;20035;-42
2021/03/12 08:15:16;;;;;;;4.85;0.90;;;21.20;43.90;;;;;;5071361;28;20043;-46
2021/03/12 08:17:43;;;;;;;5.70;0.70;;;21.20;43.90;;;;;;5069976;28;20033;-45
2021/03/12 08:20:40;;;;;;;4.13;0.70;;;21.20;44.00;;;;;;5078991;28;20032;-46
2021/03/12 08:23:07;;;;;;;5.55;1.15;;;21.20;44.00;;;;;;5077908;28;20032;-45
2021/03/12 08:25:35;;;;;;;2.17;0.65;;;21.20;44.00;;;;;;5087532;28;20059;-44
2021/03/12 08:28:08;;;;;;;5.15;0.90;;;21.20;44.10;;;;;;5088718;28;20039;-43
2021/03/12 08:30:34;;;;;;;1.90;0.90;;;21.20;44.20;;;;;;5087647;28;20059;-43
2021/03/12 08:33:02;;;;;;;2.63;0.52;;;21.20;44.20;;;;;;5076649;28;20142;-41
2021/03/12 08:35:39;;;;;;;3.80;0.75;;;21.20;44.40;;;;;;5085510;28;20036;-50
2021/03/12 08:38:25;;;;;;;4.28;1.25;;;21.20;44.40;;;;;;5081192;28;20028;-47
2021/03/12 08:41:12;;;;;;;4.68;0.98;;;21.30;44.30;;;;;;5081610;28;20114;-43
2021/03/12 08:43:45;;;;;;;11.07;1.08;;;21.20;44.40;;;;;;5086601;28;20070;-41
2021/03/12 08:46:13;;;;;;;5.20;0.90;;;21.30;44.50;;;;;;5065630;28;20473;-43
2021/03/12 08:48:39;;;;;;;3.05;0.80;;;21.30;44.50;;;;;;5080464;28;20269;-51
2021/03/12 08:51:05;;;;;;;3.28;0.77;;;21.20;44.40;;;;;;5092503;28;20036;-45
2021/03/12 08:53:44;;;;;;;7.75;1.88;;;21.30;44.50;;;;;;5073370;28;20039;-45
2021/03/12 08:56:10;;;;;;;9.10;1.17;;;21.30;44.60;;;;;;5086473;28;20496;-38
2021/03/12 08:58:38;;;;;;;5.75;1.33;;;21.30;44.60;;;;;;5073134;28;20194;-39
2021/03/12 09:01:15;;;;;;;5.95;1.00;;;21.40;44.80;;;;;;5073982;28;20060;-40
2021/03/12 09:03:47;;;;;;;8.10;1.25;;;21.40;45.00;;;;;;5073666;28;20632;-49
2021/03/12 09:06:16;;;;;;;6.97;1.00;;;21.40;44.80;;;;;;5075570;28;20037;-50
2021/03/12 09:08:43;;;;;;;5.47;0.75;;;21.40;45.10;;;;;;5073368;28;20209;-50
2021/03/12 09:11:15;;;;;;;5.75;0.90;;;21.40;45.10;;;;;;5073029;28;20389;-45
2021/03/12 09:13:44;;;;;;;7.25;1.30;;;21.40;44.80;;;;;;5080408;28;20473;-52
2021/03/12 09:16:10;;;;;;;4.97;0.60;;;21.50;44.70;;;;;;5074041;28;20024;-52
2021/03/12 09:18:37;;;;;;;5.10;0.90;;;21.50;44.70;;;;;;5072986;28;20049;-50
2021/03/12 09:21:06;;;;;;;2.60;0.75;;;21.40;44.60;;;;;;5074790;28;20059;-47
2021/03/12 09:23:39;;;;;;;2.58;0.77;;;21.40;44.50;;;;;;5080597;28;20031;-49
2021/03/12 09:26:11;;;;;;;6.60;0.75;;;21.40;44.50;;;;;;5081547;28;20028;-50
2021/03/12 09:28:37;;;;;;;10.57;1.30;;;21.40;44.40;;;;;;5090636;28;20473;-50
2021/03/12 09:31:04;;;;;;;3.78;0.77;;;21.40;44.30;;;;;;5087984;28;20032;-47
2021/03/12 09:33:36;;;;;;;3.47;0.70;;;21.50;44.20;;;;;;5073407;28;20469;-50
2021/03/12 09:36:26;;;;;;;9.02;0.80;;;21.50;44.20;;;;;;5083049;28;20021;-52
2021/03/12 09:38:55;;;;;;;5.72;0.90;;;21.50;44.20;;;;;;5060007;28;20028;-53
2021/03/12 09:41:24;;;;;;;5.78;0.63;;;21.50;44.40;;;;;;5084258;28;20146;-55
2021/03/12 09:44:10;;;;;;;4.35;0.60;;;21.50;44.20;;;;;;5081471;28;20025;-49
2021/03/12 09:46:50;;;;;;;3.78;1.02;;;21.50;44.30;;;;;;5080462;28;20357;-48
2021/03/12 09:49:19;;;;;;;9.57;1.17;;;21.50;44.30;;;;;;5073104;28;20031;-50
2021/03/12 09:51:47;;;;;;;2.85;0.88;;;21.40;44.10;;;;;;5072809;28;20082;-52
2021/03/12 09:54:15;;;;;;;6.90;0.80;;;21.40;44.30;;;;;;5080142;28;20435;-52
2021/03/12 09:56:46;;;;;;;6.32;1.98;;;21.40;44.20;;;;;;5071924;28;20028;-49
2021/03/12 09:59:13;;;;;;;6.68;0.90;;;21.40;44.20;;;;;;5084162;28;20056;-52
2021/03/12 10:01:41;;;;;;;8.30;0.85;;;21.40;44.00;;;;;;5079014;28;20021;-54
2021/03/12 10:04:36;;;;;;;2.10;1.08;;;21.40;44.00;;;;;;5083565;28;20033;-55
2021/03/12 10:07:05;;;;;;;4.60;0.82;;;21.40;44.10;;;;;;5092777;28;20107;-50
2021/03/12 10:09:32;;;;;;;5.03;0.93;;;21.40;43.90;;;;;;5080753;28;20036;-52
2021/03/12 10:11:59;;;;;;;6.93;0.90;;;21.50;44.00;;;;;;5088536;28;20126;-50
2021/03/12 10:14:43;;;;;;;9.70;0.88;;;21.40;44.10;;;;;;5080186;28;20047;-54
2021/03/12 10:17:10;;;;;;;5.05;0.70;;;21.40;43.90;;;;;;5085628;28;20468;-51
2021/03/12 10:19:52;;;;;;;6.75;1.50;;;21.40;43.90;;;;;;5082844;28;20047;-51
2021/03/12 10:22:20;;;;;;;4.23;0.77;;;21.40;43.90;;;;;;5091953;28;20103;-55
2021/03/12 10:25:01;;;;;;;4.53;1.00;;;21.40;44.10;;;;;;5078847;28;20029;-49
2021/03/12 10:27:41;;;;;;;3.97;0.88;;;21.50;43.80;;;;;;5080644;28;20024;-52
2021/03/12 10:30:12;;;;;;;3.10;0.52;;;21.50;43.90;;;;;;5079120;28;20028;-55
2021/03/12 10:32:54;;;;;;;4.13;0.93;;;21.40;43.80;;;;;;5075919;28;20431;-54
2021/03/12 10:35:27;;;;;;;7.65;0.75;;;21.50;43.70;;;;;;5079057;28;20029;-51
2021/03/12 10:37:56;;;;;;;3.78;0.70;;;21.50;43.80;;;;;;5085617;28;20044;-48
2021/03/12 10:40:24;;;;;;;2.22;0.90;;;21.40;43.70;;;;;;5084623;28;20037;-58
2021/03/12 10:42:51;;;;;;;2.85;0.60;;;21.50;43.70;;;;;;5079034;28;20081;-58
2021/03/12 10:45:29;;;;;;;4.55;0.98;;;21.50;43.70;;;;;;5088289;28;20028;-61
2021/03/12 10:48:02;;;;;;;7.22;1.02;;;21.50;43.70;;;;;;5079685;28;20032;-42
2021/03/12 10:50:30;;;;;;;7.65;1.67;;;21.50;43.70;;;;;;5082280;28;20035;-41
2021/03/12 10:53:13;;;;;;;3.80;0.98;;;21.50;43.70;;;;;;5074068;28;20097;-43
2021/03/12 10:55:45;;;;;;;7.07;0.90;;;21.50;43.80;;;;;;5076630;28;20103;-45
2021/03/12 10:58:24;;;;;;;4.35;0.80;;;21.50;43.70;;;;;;5085147;28;20117;-42
2021/03/12 11:01:08;;;;;;;6.40;0.90;;;21.50;43.70;;;;;;5075199;28;20029;-44
2021/03/12 11:03:34;;;;;;;1.88;0.80;;;21.40;43.70;;;;;;5079829;28;20095;-41
2021/03/12 11:06:00;;;;;;;4.40;1.17;;;21.40;43.60;;;;;;5071941;28;20032;-41
2021/03/12 11:08:27;;;;;;;4.13;0.90;;;21.40;43.70;;;;;;5072711;28;20107;-49
2021/03/12 11:10:54;;;;;;;6.75;1.27;;;21.40;43.80;;;;;;5075823;28;20384;-42
2021/03/12 11:13:20;;;;;;;1.40;0.60;;;21.40;43.90;;;;;;5071768;28;20111;-41
2021/03/12 11:15:46;;;;;;;7.22;0.73;;;21.30;43.90;;;;;;5084221;28;20059;-47
2021/03/12 11:18:12;;;;;;;4.75;1.00;;;21.30;43.90;;;;;;5085642;28;20069;-41
2021/03/12 11:20:37;;;;;;;3.22;0.68;;;21.30;43.90;;;;;;5089431;28;20438;-41
2021/03/12 11:23:03;;;;;;;5.88;0.73;;;21.30;44.80;;;;;;5081579;28;20067;-41
2021/03/12 11:25:29;;;;;;;6.53;1.33;;;21.30;44.20;;;;;;5079899;28;20035;-43
2021/03/12 11:27:54;;;;;;;2.70;0.60;;;21.30;44.50;;;;;;5089550;28;20089;-44
2021/03/12 11:30:20;;;;;;;10.77;1.10;;;21.30;44.60;;;;;;5090154;28;20484;-43
2021/03/12 11:32:47;;;;;;;4.18;0.70;;;21.30;44.40;;;;;;5072884;28;20642;-44
2021/03/12 11:35:15;;;;;;;4.38;0.82;;;21.30;44.20;;;;;;5079852;28;20036;-42
2021/03/12 11:37:40;;;;;;;4.38;0.60;;;21.30;44.40;;;;;;5090308;28;20039;-41
2021/03/12 11:40:08;;;;;;;3.72;0.80;;;21.20;44.40;;;;;;5089630;28;20032;-42
2021/03/12 11:42:35;;;;;;;7.50;1.08;;;21.30;44.50;;;;;;5079560;28;20461;-43
2021/03/12 11:45:03;;;;;;;8.10;1.13;;;21.30;44.70;;;;;;5076263;28;20484;-43
2021/03/12 11:47:28;;;;;;;5.65;1.50;;;21.20;44.80;;;;;;5089482;28;20470;-47
2021/03/12 11:49:54;;;;;;;5.78;2.05;;;21.20;45.10;;;;;;5087788;28;20059;-43
2021/03/12 11:52:25;;;;;;;3.58;1.40;;;21.20;44.80;;;;;;5072124;28;20027;-43
2021/03/12 11:54:52;;;;;;;2.70;1.33;;;21.20;44.90;;;;;;5079139;28;20035;-43
2021/03/12 11:57:18;;;;;;;4.93;1.10;;;21.20;44.70;;;;;;5078113;28;20036;-46
2021/03/12 11:59:44;;;;;;;4.53;1.30;;;21.20;44.70;;;;;;5077209;28;20039;-45
2021/03/12 12:02:10;;;;;;;8.50;1.25;;;21.20;44.60;;;;;;5075357;28;20107;-41
2021/03/12 12:04:36;;;;;;;13.80;1.70;;;21.20;44.60;;;;;;5088057;28;20020;-49
2021/03/12 12:07:02;;;;;;;20.83;1.58;;;21.10;44.60;;;;;;5087298;28;20412;-49
2021/03/12 12:09:28;;;;;;;22.33;1.95;;;21.30;44.70;;;;;;5086539;28;20607;-52
2021/03/12 12:11:54;;;;;;;13.38;2.15;;;21.20;44.50;;;;;;5074700;28;20115;-48
2021/03/12 12:14:21;;;;;;;15.25;1.98;;;21.20;44.60;;;;;;5080163;28;20457;-48
2021/03/12 12:16:47;;;;;;;12.93;2.30;;;21.20;45.00;;;;;;5075271;28;20474;-47
2021/03/12 12:19:14;;;;;;;17.00;2.50;;;21.10;44.80;;;;;;5094696;28;20410;-49
2021/03/12 12:21:40;;;;;;;22.13;3.72;;;21.10;44.50;;;;;;5077310;28;20086;-53
2021/03/12 12:24:07;;;;;;;17.08;3.20;;;21.10;44.20;;;;;;5075034;28;20045;-53
2021/03/12 12:26:33;;;;;;;17.98;3.13;;;21.00;44.10;;;;;;5074440;28;20404;-51
2021/03/12 12:29:00;;;;;;;16.20;3.15;;;21.00;44.00;;;;;;5091630;28;20074;-50
2021/03/12 12:31:26;;;;;;;17.25;2.60;;;21.00;43.80;;;;;;5074897;28;20107;-45
2021/03/12 12:33:51;;;;;;;27.70;4.32;;;21.10;44.00;;;;;;5085622;28;20107;-49
2021/03/12 12:36:17;;;;;;;21.58;3.08;;;21.10;44.30;;;;;;5094628;28;20536;-47
2021/03/12 12:38:43;;;;;;;18.52;3.10;;;21.10;43.90;;;;;;5084737;28;20039;-47
2021/03/12 12:41:09;;;;;;;35.05;4.30;;;21.10;44.40;;;;;;5082166;28;20101;-51
2021/03/12 12:43:35;;;;;;;34.45;3.72;;;21.10;44.30;;;;;;5074900;28;20538;-47
2021/03/12 12:46:01;;;;;;;32.35;3.78;;;21.10;44.40;;;;;;5086610;28;20110;-48
2021/03/12 12:48:26;;;;;;;25.33;2.90;;;21.10;44.50;;;;;;5087597;28;20033;-55
2021/03/12 12:50:52;;;;;;;19.00;2.78;;;21.10;44.50;;;;;;5076181;28;20162;-46
2021/03/12 12:53:18;;;;;;;22.10;2.85;;;21.10;44.40;;;;;;5074445;28;20029;-45